createdAt,value
2023-05-21T00:00:11.430Z,0.00
2023-05-21T00:01:11.405Z,0.00
2023-05-21T00:02:11.386Z,0.00
2023-05-21T00:03:11.477Z,0.00
2023-05-21T00:04:11.373Z,0.00
2023-05-21T00:05:14.306Z,0.00
2023-05-21T00:06:11.427Z,0.00
2023-05-21T00:07:11.333Z,0.00
2023-05-21T00:08:11.325Z,0.00
2023-05-21T00:09:11.322Z,0.00
2023-05-21T00:10:11.305Z,0.00
2023-05-21T00:11:11.305Z,0.00
2023-05-21T00:12:11.330Z,0.00
2023-05-21T00:13:11.281Z,0.00
2023-05-21T00:14:11.268Z,0.00
2023-05-21T00:15:11.264Z,0.00
2023-05-21T00:16:11.401Z,0.00
2023-05-21T00:17:11.239Z,0.00
2023-05-21T00:18:11.301Z,0.00
2023-05-21T00:19:11.261Z,0.00
2023-05-21T00:20:11.200Z,0.00
2023-05-21T00:21:11.195Z,0.00
2023-05-21T00:22:11.190Z,0.00
2023-05-21T00:23:11.181Z,0.00
2023-05-21T00:24:11.181Z,0.00
2023-05-21T00:25:11.164Z,0.00
2023-05-21T00:26:11.143Z,0.00
2023-05-21T00:27:11.137Z,0.00
2023-05-21T00:28:11.122Z,0.00
2023-05-21T00:29:11.111Z,0.00
2023-05-21T00:30:11.131Z,0.00
2023-05-21T00:31:11.129Z,0.00
2023-05-21T00:32:11.190Z,0.00
2023-05-21T00:33:11.093Z,0.00
2023-05-21T00:34:11.063Z,0.00
2023-05-21T00:35:11.052Z,0.00
2023-05-21T00:36:11.078Z,0.00
2023-05-21T00:37:11.029Z,0.00
2023-05-21T00:38:11.017Z,0.00
2023-05-21T00:39:11.002Z,0.00
2023-05-21T00:40:10.997Z,0.00
2023-05-21T00:41:10.980Z,0.00
2023-05-21T00:42:11.013Z,0.00
2023-05-21T00:43:10.971Z,0.00
2023-05-21T00:44:10.957Z,0.00
2023-05-21T00:45:10.955Z,0.00
2023-05-21T00:46:11.017Z,0.00
2023-05-21T00:47:10.924Z,0.00
2023-05-21T00:48:10.943Z,0.00
2023-05-21T00:49:10.901Z,0.00
2023-05-21T00:50:10.908Z,0.00
2023-05-21T00:51:10.889Z,0.00
2023-05-21T00:52:10.872Z,0.00
2023-05-21T00:53:10.866Z,0.00
2023-05-21T00:54:10.887Z,0.00
2023-05-21T00:55:10.849Z,0.00
2023-05-21T00:56:10.831Z,0.00
2023-05-21T00:57:10.811Z,0.00
2023-05-21T00:58:10.802Z,0.00
2023-05-21T00:59:10.795Z,0.00
2023-05-21T01:00:10.969Z,0.00
2023-05-21T01:01:10.777Z,0.00
2023-05-21T01:02:10.819Z,0.00
2023-05-21T01:03:11.016Z,0.00
2023-05-21T01:04:10.742Z,0.00
2023-05-21T01:05:10.750Z,0.00
2023-05-21T01:06:10.771Z,0.00
2023-05-21T01:07:10.717Z,0.00
2023-05-21T01:08:10.722Z,0.00
2023-05-21T01:09:10.694Z,0.00
2023-05-21T01:10:10.685Z,0.00
2023-05-21T01:11:10.678Z,0.00
2023-05-21T01:12:10.706Z,0.00
2023-05-21T01:13:10.645Z,0.00
2023-05-21T01:14:10.636Z,0.00
2023-05-21T01:15:10.629Z,0.00
2023-05-21T01:16:10.619Z,0.00
2023-05-21T01:17:10.693Z,0.00
2023-05-21T01:18:10.670Z,0.00
2023-05-21T01:19:10.696Z,0.00
2023-05-21T01:20:10.604Z,0.00
2023-05-21T01:21:10.568Z,0.00
2023-05-21T01:22:10.552Z,0.00
2023-05-21T01:23:10.540Z,0.00
2023-05-21T01:24:10.528Z,0.00
2023-05-21T01:25:10.467Z,0.00
2023-05-21T01:26:10.515Z,0.00
2023-05-21T01:27:10.505Z,0.00
2023-05-21T01:28:10.486Z,0.00
2023-05-21T01:29:10.485Z,0.00
2023-05-21T01:30:10.490Z,0.00
2023-05-21T01:31:10.475Z,0.00
2023-05-21T01:32:10.468Z,0.00
2023-05-21T01:33:10.598Z,0.00
2023-05-21T01:34:10.482Z,0.00
2023-05-21T01:35:10.423Z,0.00
2023-05-21T01:36:10.440Z,0.00
2023-05-21T01:37:10.396Z,0.00
2023-05-21T01:38:10.395Z,0.00
2023-05-21T01:39:10.396Z,0.00
2023-05-21T01:40:10.385Z,0.00
2023-05-21T01:41:10.321Z,0.00
2023-05-21T01:42:10.333Z,0.00
2023-05-21T01:43:10.275Z,0.00
2023-05-21T01:44:10.276Z,0.00
2023-05-21T01:45:10.269Z,0.00
2023-05-21T01:46:10.266Z,0.00
2023-05-21T01:47:10.243Z,0.00
2023-05-21T01:48:10.273Z,0.00
2023-05-21T01:49:10.222Z,0.00
2023-05-21T01:50:10.217Z,0.00
2023-05-21T01:51:10.196Z,0.00
2023-05-21T01:52:10.189Z,0.00
2023-05-21T01:53:10.178Z,0.00
2023-05-21T01:54:10.203Z,0.00
2023-05-21T01:55:10.181Z,0.00
2023-05-21T01:56:10.149Z,0.00
2023-05-21T01:57:10.134Z,0.00
2023-05-21T01:58:10.137Z,0.00
2023-05-21T01:59:10.121Z,0.00
2023-05-21T02:00:10.137Z,0.00
2023-05-21T02:01:10.109Z,0.00
2023-05-21T02:02:10.203Z,0.00
2023-05-21T02:03:10.154Z,0.00
2023-05-21T02:04:10.121Z,0.00
2023-05-21T02:05:10.048Z,0.00
2023-05-21T02:06:10.090Z,0.00
2023-05-21T02:07:10.032Z,0.00
2023-05-21T02:08:10.030Z,0.00
2023-05-21T02:09:10.017Z,0.00
2023-05-21T02:10:10.032Z,0.00
2023-05-21T02:11:09.996Z,0.00
2023-05-21T02:12:10.059Z,0.00
2023-05-21T02:13:09.972Z,0.00
2023-05-21T02:14:09.965Z,0.00
2023-05-21T02:15:09.963Z,0.00
2023-05-21T02:16:10.026Z,0.00
2023-05-21T02:17:09.929Z,0.00
2023-05-21T02:18:10.009Z,0.00
2023-05-21T02:19:09.934Z,0.00
2023-05-21T02:20:09.904Z,0.00
2023-05-21T02:21:09.885Z,0.00
2023-05-21T02:22:09.883Z,0.00
2023-05-21T02:23:09.874Z,0.00
2023-05-21T02:24:09.885Z,0.00
2023-05-21T02:25:09.877Z,0.00
2023-05-21T02:26:09.866Z,0.00
2023-05-21T02:27:09.836Z,0.00
2023-05-21T02:28:09.834Z,0.00
2023-05-21T02:29:09.808Z,0.00
2023-05-21T02:30:09.826Z,0.00
2023-05-21T02:31:09.803Z,0.00
2023-05-21T02:32:09.786Z,0.00
2023-05-21T02:33:09.829Z,0.00
2023-05-21T02:34:09.800Z,0.00
2023-05-21T02:35:09.741Z,0.00
2023-05-21T02:36:09.769Z,0.00
2023-05-21T02:37:09.733Z,0.00
2023-05-21T02:38:09.712Z,0.00
2023-05-21T02:39:09.711Z,0.00
2023-05-21T02:40:09.711Z,0.00
2023-05-21T02:41:09.690Z,0.00
2023-05-21T02:42:09.709Z,0.00
2023-05-21T02:43:09.667Z,5.62
2023-05-21T02:44:09.652Z,5.62
2023-05-21T02:45:09.643Z,5.62
2023-05-21T02:46:09.695Z,5.62
2023-05-21T02:47:09.620Z,5.62
2023-05-21T02:48:09.703Z,5.62
2023-05-21T02:49:09.602Z,5.62
2023-05-21T02:50:09.633Z,5.62
2023-05-21T02:51:09.595Z,5.62
2023-05-21T02:52:09.570Z,5.62
2023-05-21T02:53:09.562Z,5.62
2023-05-21T02:54:09.583Z,5.62
2023-05-21T02:55:09.546Z,5.62
2023-05-21T02:56:09.552Z,5.62
2023-05-21T02:57:09.508Z,5.62
2023-05-21T02:58:09.516Z,5.62
2023-05-21T02:59:09.486Z,5.62
2023-05-21T03:00:09.507Z,5.62
2023-05-21T03:01:09.490Z,5.62
2023-05-21T03:02:09.547Z,5.62
2023-05-21T03:03:09.572Z,5.62
2023-05-21T03:04:09.442Z,5.62
2023-05-21T03:05:09.447Z,11.25
2023-05-21T03:06:09.434Z,5.62
2023-05-21T03:07:09.409Z,5.62
2023-05-21T03:08:09.403Z,5.62
2023-05-21T03:09:09.401Z,5.62
2023-05-21T03:10:09.379Z,5.62
2023-05-21T03:11:09.366Z,11.25
2023-05-21T03:12:09.393Z,11.25
2023-05-21T03:13:09.993Z,11.25
2023-05-21T03:14:09.349Z,11.25
2023-05-21T03:15:09.336Z,11.25
2023-05-21T03:16:09.315Z,16.88
2023-05-21T03:17:09.317Z,11.25
2023-05-21T03:18:09.383Z,11.25
2023-05-21T03:19:09.297Z,22.50
2023-05-21T03:20:09.276Z,22.50
2023-05-21T03:21:09.255Z,16.88
2023-05-21T03:22:09.251Z,22.50
2023-05-21T03:23:09.241Z,28.12
2023-05-21T03:24:09.281Z,16.88
2023-05-21T03:25:09.225Z,11.25
2023-05-21T03:26:09.216Z,11.25
2023-05-21T03:27:09.198Z,11.25
2023-05-21T03:28:09.208Z,11.25
2023-05-21T03:29:09.174Z,11.25
2023-05-21T03:30:09.199Z,11.25
2023-05-21T03:31:09.160Z,11.25
2023-05-21T03:32:09.194Z,11.25
2023-05-21T03:33:09.209Z,11.25
2023-05-21T03:34:09.128Z,11.25
2023-05-21T03:35:09.114Z,11.25
2023-05-21T03:36:09.134Z,11.25
2023-05-21T03:37:09.094Z,11.25
2023-05-21T03:38:09.090Z,11.25
2023-05-21T03:39:09.078Z,11.25
2023-05-21T03:40:09.062Z,11.25
2023-05-21T03:41:09.053Z,16.88
2023-05-21T03:42:09.069Z,16.88
2023-05-21T03:43:09.038Z,16.88
2023-05-21T03:44:09.048Z,16.88
2023-05-21T03:45:09.008Z,16.88
2023-05-21T03:46:09.068Z,16.88
2023-05-21T03:47:08.990Z,16.88
2023-05-21T03:48:09.011Z,16.88
2023-05-21T03:49:08.974Z,16.88
2023-05-21T03:50:08.959Z,16.88
2023-05-21T03:51:08.954Z,16.88
2023-05-21T03:52:08.941Z,16.88
2023-05-21T03:53:08.930Z,16.88
2023-05-21T03:54:08.948Z,16.88
2023-05-21T03:55:08.903Z,16.88
2023-05-21T03:56:08.913Z,16.88
2023-05-21T03:57:08.893Z,16.88
2023-05-21T03:58:08.881Z,16.88
2023-05-21T03:59:08.864Z,16.88
2023-05-21T04:00:08.886Z,16.88
2023-05-21T04:01:08.867Z,16.88
2023-05-21T04:02:08.888Z,16.88
2023-05-21T04:03:08.948Z,16.88
2023-05-21T04:04:08.907Z,22.50
2023-05-21T04:05:08.810Z,22.50
2023-05-21T04:06:08.821Z,22.50
2023-05-21T04:07:08.776Z,22.50
2023-05-21T04:08:08.787Z,22.50
2023-05-21T04:09:08.759Z,22.50
2023-05-21T04:10:08.772Z,22.50
2023-05-21T04:11:08.756Z,28.12
2023-05-21T04:12:08.758Z,28.12
2023-05-21T04:13:08.722Z,22.50
2023-05-21T04:14:08.713Z,28.12
2023-05-21T04:15:08.714Z,28.12
2023-05-21T04:16:08.792Z,28.12
2023-05-21T04:17:08.679Z,28.12
2023-05-21T04:18:08.727Z,28.12
2023-05-21T04:19:08.679Z,22.50
2023-05-21T04:20:08.648Z,22.50
2023-05-21T04:21:08.641Z,22.50
2023-05-21T04:22:08.625Z,22.50
2023-05-21T04:23:08.615Z,22.50
2023-05-21T04:24:08.659Z,22.50
2023-05-21T04:25:08.589Z,22.50
2023-05-21T04:26:08.592Z,22.50
2023-05-21T04:27:08.570Z,22.50
2023-05-21T04:28:08.561Z,22.50
2023-05-21T04:29:08.561Z,22.50
2023-05-21T04:30:08.765Z,22.50
2023-05-21T04:31:08.573Z,22.50
2023-05-21T04:32:08.528Z,22.50
2023-05-21T04:33:08.511Z,22.50
2023-05-21T04:34:08.500Z,22.50
2023-05-21T04:35:08.488Z,22.50
2023-05-21T04:36:08.518Z,22.50
2023-05-21T04:37:08.471Z,22.50
2023-05-21T04:38:08.478Z,22.50
2023-05-21T04:39:08.488Z,22.50
2023-05-21T04:40:08.456Z,22.50
2023-05-21T04:41:08.439Z,22.50
2023-05-21T04:42:08.440Z,22.50
2023-05-21T04:43:08.417Z,22.50
2023-05-21T04:44:08.410Z,22.50
2023-05-21T04:45:08.401Z,22.50
2023-05-21T04:46:08.393Z,22.50
2023-05-21T04:47:08.505Z,22.50
2023-05-21T04:48:08.384Z,28.12
2023-05-21T04:49:08.346Z,28.12
2023-05-21T04:50:08.343Z,28.12
2023-05-21T04:51:08.325Z,28.12
2023-05-21T04:52:08.335Z,28.12
2023-05-21T04:53:08.322Z,28.12
2023-05-21T04:54:08.352Z,28.12
2023-05-21T04:55:08.308Z,28.12
2023-05-21T04:56:08.279Z,28.12
2023-05-21T04:57:08.269Z,28.12
2023-05-21T04:58:08.259Z,28.12
2023-05-21T04:59:08.253Z,28.12
2023-05-21T05:00:08.255Z,28.12
2023-05-21T05:01:08.266Z,28.12
2023-05-21T05:02:08.203Z,28.12
2023-05-21T05:03:08.296Z,28.12
2023-05-21T05:04:08.212Z,28.12
2023-05-21T05:05:08.179Z,28.12
2023-05-21T05:06:08.233Z,28.12
2023-05-21T05:07:08.167Z,28.12
2023-05-21T05:08:08.143Z,28.12
2023-05-21T05:09:08.137Z,28.12
2023-05-21T05:10:08.124Z,28.12
2023-05-21T05:11:08.116Z,28.12
2023-05-21T05:12:08.138Z,28.12
2023-05-21T05:13:08.132Z,28.12
2023-05-21T05:14:08.105Z,28.12
2023-05-21T05:15:08.102Z,28.12
2023-05-21T05:16:08.094Z,28.12
2023-05-21T05:17:08.054Z,28.12
2023-05-21T05:18:08.129Z,28.12
2023-05-21T05:19:08.102Z,33.75
2023-05-21T05:20:08.032Z,33.75
2023-05-21T05:21:08.005Z,33.75
2023-05-21T05:22:08.007Z,33.75
2023-05-21T05:23:08.001Z,33.75
2023-05-21T05:24:08.137Z,33.75
2023-05-21T05:25:07.971Z,33.75
2023-05-21T05:26:07.954Z,33.75
2023-05-21T05:27:07.955Z,33.75
2023-05-21T05:28:07.935Z,33.75
2023-05-21T05:29:07.928Z,33.75
2023-05-21T05:30:07.971Z,39.38
2023-05-21T05:31:07.929Z,39.38
2023-05-21T05:32:07.906Z,39.38
2023-05-21T05:33:07.975Z,39.38
2023-05-21T05:34:07.876Z,39.38
2023-05-21T05:35:07.868Z,39.38
2023-05-21T05:36:07.888Z,39.38
2023-05-21T05:37:07.852Z,39.38
2023-05-21T05:38:07.836Z,39.38
2023-05-21T05:39:09.623Z,39.38
2023-05-21T05:40:07.816Z,39.38
2023-05-21T05:41:07.812Z,39.38
2023-05-21T05:42:07.825Z,45.00
2023-05-21T05:43:07.799Z,45.00
2023-05-21T05:44:10.749Z,45.00
2023-05-21T05:45:07.762Z,45.00
2023-05-21T05:46:07.830Z,45.00
2023-05-21T05:47:07.746Z,45.00
2023-05-21T05:48:07.866Z,45.00
2023-05-21T05:49:07.741Z,45.00
2023-05-21T05:50:07.717Z,45.00
2023-05-21T05:51:07.704Z,45.00
2023-05-21T05:52:07.711Z,45.00
2023-05-21T05:53:07.679Z,45.00
2023-05-21T05:54:07.696Z,45.00
2023-05-21T05:55:07.661Z,45.00
2023-05-21T05:56:07.655Z,45.00
2023-05-21T05:57:07.640Z,45.00
2023-05-21T05:58:07.620Z,50.62
2023-05-21T05:59:07.624Z,50.62
2023-05-21T06:00:07.637Z,45.00
2023-05-21T06:01:07.602Z,45.00
2023-05-21T06:02:07.709Z,45.00
2023-05-21T06:03:07.700Z,45.00
2023-05-21T06:04:07.565Z,50.62
2023-05-21T06:05:07.553Z,50.62
2023-05-21T06:06:07.633Z,50.62
2023-05-21T06:07:07.535Z,50.62
2023-05-21T06:08:07.526Z,50.62
2023-05-21T06:09:07.529Z,50.62
2023-05-21T06:10:07.502Z,50.62
2023-05-21T06:11:07.483Z,50.62
2023-05-21T06:12:07.506Z,50.62
2023-05-21T06:13:07.490Z,50.62
2023-05-21T06:14:07.460Z,50.62
2023-05-21T06:15:07.451Z,50.62
2023-05-21T06:16:07.505Z,56.25
2023-05-21T06:17:07.419Z,56.25
2023-05-21T06:18:07.490Z,56.25
2023-05-21T06:19:07.402Z,56.25
2023-05-21T06:20:07.390Z,56.25
2023-05-21T06:21:07.386Z,56.25
2023-05-21T06:22:07.377Z,61.88
2023-05-21T06:23:07.399Z,61.88
2023-05-21T06:24:07.364Z,61.88
2023-05-21T06:25:07.331Z,67.50
2023-05-21T06:26:07.328Z,67.50
2023-05-21T06:27:07.321Z,67.50
2023-05-21T06:28:07.310Z,67.50
2023-05-21T06:29:07.299Z,67.50
2023-05-21T06:30:07.326Z,73.12
2023-05-21T06:31:07.279Z,73.12
2023-05-21T06:32:07.260Z,73.12
2023-05-21T06:33:07.328Z,73.12
2023-05-21T06:34:07.323Z,73.12
2023-05-21T06:35:07.244Z,78.75
2023-05-21T06:36:07.264Z,78.75
2023-05-21T06:37:07.208Z,84.38
2023-05-21T06:38:07.198Z,84.38
2023-05-21T06:39:07.205Z,78.75
2023-05-21T06:40:07.179Z,78.75
2023-05-21T06:41:07.181Z,84.38
2023-05-21T06:42:07.182Z,84.38
2023-05-21T06:43:07.152Z,106.88
2023-05-21T06:44:07.137Z,106.88
2023-05-21T06:45:07.130Z,95.62
2023-05-21T06:46:07.170Z,90.00
2023-05-21T06:47:07.113Z,106.88
2023-05-21T06:48:07.154Z,112.50
2023-05-21T06:49:07.142Z,90.00
2023-05-21T06:50:07.072Z,106.88
2023-05-21T06:51:07.072Z,101.25
2023-05-21T06:52:07.078Z,123.75
2023-05-21T06:53:07.041Z,118.12
2023-05-21T06:54:07.059Z,118.12
2023-05-21T06:55:07.033Z,118.12
2023-05-21T06:56:07.040Z,123.75
2023-05-21T06:57:07.008Z,112.50
2023-05-21T06:58:06.994Z,106.88
2023-05-21T06:59:06.988Z,112.50
2023-05-21T07:00:07.021Z,118.12
2023-05-21T07:01:06.974Z,123.75
2023-05-21T07:02:06.995Z,118.12
2023-05-21T07:03:07.081Z,140.62
2023-05-21T07:04:06.918Z,140.62
2023-05-21T07:05:06.914Z,129.38
2023-05-21T07:06:06.934Z,129.38
2023-05-21T07:07:06.899Z,112.50
2023-05-21T07:08:06.883Z,118.12
2023-05-21T07:09:06.878Z,101.25
2023-05-21T07:10:06.847Z,106.88
2023-05-21T07:11:06.849Z,118.12
2023-05-21T07:12:07.609Z,146.25
2023-05-21T07:13:06.826Z,151.88
2023-05-21T07:14:06.819Z,146.25
2023-05-21T07:15:06.840Z,151.88
2023-05-21T07:16:06.788Z,146.25
2023-05-21T07:17:06.959Z,151.88
2023-05-21T07:18:06.823Z,151.88
2023-05-21T07:19:06.811Z,151.88
2023-05-21T07:20:06.750Z,129.38
2023-05-21T07:21:06.759Z,135.00
2023-05-21T07:22:06.768Z,135.00
2023-05-21T07:23:06.716Z,135.00
2023-05-21T07:24:06.749Z,140.62
2023-05-21T07:25:06.694Z,163.12
2023-05-21T07:26:06.692Z,163.12
2023-05-21T07:27:17.682Z,163.12
2023-05-21T07:28:07.675Z,163.12
2023-05-21T07:29:06.655Z,151.88
2023-05-21T07:30:06.678Z,151.88
2023-05-21T07:31:06.646Z,163.12
2023-05-21T07:32:06.621Z,163.12
2023-05-21T07:33:06.641Z,163.12
2023-05-21T07:34:06.601Z,163.12
2023-05-21T07:35:06.597Z,163.12
2023-05-21T07:36:06.611Z,163.12
2023-05-21T07:37:06.571Z,163.12
2023-05-21T07:38:06.583Z,163.12
2023-05-21T07:39:06.560Z,168.75
2023-05-21T07:40:06.555Z,168.75
2023-05-21T07:41:06.536Z,168.75
2023-05-21T07:42:06.550Z,168.75
2023-05-21T07:43:06.520Z,168.75
2023-05-21T07:44:06.498Z,174.38
2023-05-21T07:45:06.496Z,174.38
2023-05-21T07:46:06.512Z,174.38
2023-05-21T07:47:06.474Z,180.00
2023-05-21T07:48:06.536Z,180.00
2023-05-21T07:49:06.448Z,180.00
2023-05-21T07:50:06.444Z,180.00
2023-05-21T07:51:06.439Z,185.62
2023-05-21T07:52:06.430Z,185.62
2023-05-21T07:53:06.423Z,191.25
2023-05-21T07:54:06.434Z,191.25
2023-05-21T07:55:06.386Z,168.75
2023-05-21T07:56:06.372Z,191.25
2023-05-21T07:57:06.367Z,191.25
2023-05-21T07:58:06.355Z,191.25
2023-05-21T07:59:06.346Z,196.88
2023-05-21T08:00:06.356Z,196.88
2023-05-21T08:01:06.326Z,196.88
2023-05-21T08:02:06.313Z,196.88
2023-05-21T08:03:06.452Z,202.50
2023-05-21T08:04:06.590Z,106.88
2023-05-21T08:05:06.361Z,101.25
2023-05-21T08:06:06.289Z,101.25
2023-05-21T08:07:06.267Z,101.25
2023-05-21T08:08:06.245Z,90.00
2023-05-21T08:09:06.280Z,90.00
2023-05-21T08:10:06.231Z,84.38
2023-05-21T08:11:06.223Z,90.00
2023-05-21T08:12:06.232Z,90.00
2023-05-21T08:13:06.204Z,95.62
2023-05-21T08:14:06.192Z,95.62
2023-05-21T08:15:06.174Z,101.25
2023-05-21T08:16:06.210Z,106.88
2023-05-21T08:17:06.157Z,101.25
2023-05-21T08:18:06.248Z,101.25
2023-05-21T08:19:06.176Z,101.25
2023-05-21T08:20:06.147Z,101.25
2023-05-21T08:21:06.113Z,112.50
2023-05-21T08:22:06.097Z,112.50
2023-05-21T08:23:06.120Z,123.75
2023-05-21T08:24:06.175Z,118.12
2023-05-21T08:25:06.077Z,118.12
2023-05-21T08:26:06.057Z,112.50
2023-05-21T08:27:06.075Z,112.50
2023-05-21T08:28:06.032Z,112.50
2023-05-21T08:29:06.058Z,112.50
2023-05-21T08:30:06.056Z,112.50
2023-05-21T08:31:06.013Z,118.12
2023-05-21T08:32:06.165Z,123.75
2023-05-21T08:33:06.027Z,123.75
2023-05-21T08:34:05.988Z,123.75
2023-05-21T08:35:05.969Z,118.12
2023-05-21T08:36:05.984Z,118.12
2023-05-21T08:37:05.962Z,123.75
2023-05-21T08:38:05.932Z,118.12
2023-05-21T08:39:05.936Z,123.75
2023-05-21T08:40:05.929Z,123.75
2023-05-21T08:41:05.915Z,123.75
2023-05-21T08:42:06.034Z,146.25
2023-05-21T08:43:05.887Z,135.00
2023-05-21T08:44:05.880Z,123.75
2023-05-21T08:45:05.883Z,123.75
2023-05-21T08:46:05.891Z,123.75
2023-05-21T08:47:05.987Z,123.75
2023-05-21T08:48:05.899Z,112.50
2023-05-21T08:49:05.830Z,112.50
2023-05-21T08:50:05.816Z,112.50
2023-05-21T08:51:05.805Z,112.50
2023-05-21T08:52:05.785Z,118.12
2023-05-21T08:53:15.480Z,112.50
2023-05-21T08:54:06.793Z,112.50
2023-05-21T08:55:05.763Z,112.50
2023-05-21T08:56:05.756Z,112.50
2023-05-21T08:57:05.742Z,112.50
2023-05-21T08:58:05.738Z,106.88
2023-05-21T08:59:05.722Z,106.88
2023-05-21T09:00:05.746Z,101.25
2023-05-21T09:01:05.732Z,101.25
2023-05-21T09:02:05.693Z,101.25
2023-05-21T09:03:05.746Z,101.25
2023-05-21T09:04:19.439Z,101.25
2023-05-21T09:05:06.699Z,101.25
2023-05-21T09:06:05.648Z,106.88
2023-05-21T09:07:05.636Z,101.25
2023-05-21T09:08:05.634Z,106.88
2023-05-21T09:09:05.615Z,101.25
2023-05-21T09:10:05.606Z,95.62
2023-05-21T09:11:05.643Z,95.62
2023-05-21T09:12:05.582Z,95.62
2023-05-21T09:13:05.589Z,95.62
2023-05-21T09:14:05.571Z,95.62
2023-05-21T09:15:05.557Z,95.62
2023-05-21T09:16:05.549Z,90.00
2023-05-21T09:17:05.618Z,95.62
2023-05-21T09:18:05.571Z,95.62
2023-05-21T09:19:05.552Z,101.25
2023-05-21T09:20:05.508Z,101.25
2023-05-21T09:21:05.492Z,106.88
2023-05-21T09:22:05.480Z,106.88
2023-05-21T09:23:05.490Z,118.12
2023-05-21T09:24:05.463Z,112.50
2023-05-21T09:25:05.447Z,118.12
2023-05-21T09:26:05.435Z,106.88
2023-05-21T09:27:05.438Z,106.88
2023-05-21T09:28:05.410Z,112.50
2023-05-21T09:29:05.424Z,106.88
2023-05-21T09:30:05.407Z,106.88
2023-05-21T09:31:05.401Z,106.88
2023-05-21T09:32:05.370Z,106.88
2023-05-21T09:33:05.407Z,106.88
2023-05-21T09:34:05.365Z,112.50
2023-05-21T09:35:05.368Z,112.50
2023-05-21T09:36:05.335Z,118.12
2023-05-21T09:37:08.512Z,123.75
2023-05-21T09:38:06.317Z,118.12
2023-05-21T09:39:05.305Z,123.75
2023-05-21T09:40:05.294Z,140.62
2023-05-21T09:41:05.330Z,151.88
2023-05-21T09:42:05.278Z,157.50
2023-05-21T09:43:05.256Z,163.12
2023-05-21T09:44:05.282Z,180.00
2023-05-21T09:45:05.241Z,191.25
2023-05-21T09:46:05.309Z,230.62
2023-05-21T09:47:05.259Z,219.38
2023-05-21T09:48:05.256Z,157.50
2023-05-21T09:49:05.198Z,230.62
2023-05-21T09:50:05.197Z,157.50
2023-05-21T09:51:05.172Z,157.50
2023-05-21T09:52:05.163Z,163.12
2023-05-21T09:53:05.183Z,146.25
2023-05-21T09:54:05.163Z,163.12
2023-05-21T09:55:05.136Z,151.88
2023-05-21T09:56:05.133Z,135.00
2023-05-21T09:57:05.120Z,140.62
2023-05-21T09:58:05.105Z,180.00
2023-05-21T09:59:05.155Z,180.00
2023-05-21T10:00:05.091Z,163.12
2023-05-21T10:01:05.069Z,146.25
2023-05-21T10:02:05.108Z,157.50
2023-05-21T10:03:05.110Z,151.88
2023-05-21T10:04:05.075Z,174.38
2023-05-21T10:05:05.068Z,163.12
2023-05-21T10:06:05.033Z,202.50
2023-05-21T10:07:05.011Z,123.75
2023-05-21T10:08:05.000Z,123.75
2023-05-21T10:09:05.924Z,146.25
2023-05-21T10:10:04.977Z,185.62
2023-05-21T10:11:04.981Z,163.12
2023-05-21T10:12:04.966Z,163.12
2023-05-21T10:13:04.967Z,168.75
2023-05-21T10:14:04.950Z,168.75
2023-05-21T10:15:04.923Z,157.50
2023-05-21T10:16:04.939Z,151.88
2023-05-21T10:17:04.922Z,157.50
2023-05-21T10:18:04.969Z,140.62
2023-05-21T10:19:04.974Z,151.88
2023-05-21T10:20:04.877Z,163.12
2023-05-21T10:21:04.870Z,146.25
2023-05-21T10:22:04.865Z,174.38
2023-05-21T10:23:04.864Z,185.62
2023-05-21T10:24:04.855Z,146.25
2023-05-21T10:25:04.825Z,140.62
2023-05-21T10:26:04.817Z,241.88
2023-05-21T10:27:04.799Z,191.25
2023-05-21T10:28:04.792Z,140.62
2023-05-21T10:29:04.812Z,129.38
2023-05-21T10:30:04.766Z,135.00
2023-05-21T10:31:04.762Z,146.25
2023-05-21T10:32:04.768Z,168.75
2023-05-21T10:33:04.789Z,163.12
2023-05-21T10:34:04.728Z,174.38
2023-05-21T10:35:04.755Z,168.75
2023-05-21T10:36:04.704Z,208.12
2023-05-21T10:37:04.702Z,208.12
2023-05-21T10:38:04.704Z,163.12
2023-05-21T10:39:04.684Z,219.38
2023-05-21T10:40:04.671Z,213.75
2023-05-21T10:41:04.679Z,174.38
2023-05-21T10:42:04.663Z,208.12
2023-05-21T10:43:04.637Z,208.12
2023-05-21T10:44:04.649Z,208.12
2023-05-21T10:45:04.637Z,208.12
2023-05-21T10:46:04.647Z,180.00
2023-05-21T10:47:04.640Z,140.62
2023-05-21T10:48:04.621Z,129.38
2023-05-21T10:49:04.578Z,163.12
2023-05-21T10:50:04.578Z,118.12
2023-05-21T10:51:04.561Z,129.38
2023-05-21T10:52:04.551Z,208.12
2023-05-21T10:53:04.560Z,196.88
2023-05-21T10:54:04.531Z,163.12
2023-05-21T10:55:04.511Z,196.88
2023-05-21T10:56:04.504Z,191.25
2023-05-21T10:57:04.496Z,191.25
2023-05-21T10:58:04.486Z,191.25
2023-05-21T10:59:04.511Z,191.25
2023-05-21T11:00:04.473Z,191.25
2023-05-21T11:01:04.531Z,191.25
2023-05-21T11:02:04.472Z,185.62
2023-05-21T11:03:04.533Z,185.62
2023-05-21T11:04:04.419Z,185.62
2023-05-21T11:05:04.434Z,180.00
2023-05-21T11:06:04.411Z,180.00
2023-05-21T11:07:04.392Z,174.38
2023-05-21T11:08:04.385Z,180.00
2023-05-21T11:09:04.377Z,180.00
2023-05-21T11:10:04.356Z,180.00
2023-05-21T11:11:04.397Z,174.38
2023-05-21T11:12:04.344Z,174.38
2023-05-21T11:13:04.331Z,180.00
2023-05-21T11:14:04.312Z,180.00
2023-05-21T11:15:04.299Z,180.00
2023-05-21T11:16:04.298Z,180.00
2023-05-21T11:17:04.341Z,180.00
2023-05-21T11:18:04.322Z,185.62
2023-05-21T11:19:04.403Z,185.62
2023-05-21T11:20:04.254Z,185.62
2023-05-21T11:21:04.238Z,185.62
2023-05-21T11:22:04.233Z,185.62
2023-05-21T11:23:04.240Z,185.62
2023-05-21T11:24:04.225Z,185.62
2023-05-21T11:25:04.210Z,146.25
2023-05-21T11:26:04.192Z,185.62
2023-05-21T11:27:04.200Z,185.62
2023-05-21T11:28:04.172Z,191.25
2023-05-21T11:29:04.185Z,191.25
2023-05-21T11:30:04.156Z,191.25
2023-05-21T11:31:04.180Z,202.50
2023-05-21T11:32:04.164Z,146.25
2023-05-21T11:33:04.166Z,95.62
2023-05-21T11:34:04.109Z,73.12
2023-05-21T11:35:04.123Z,95.62
2023-05-21T11:36:04.089Z,95.62
2023-05-21T11:37:04.076Z,174.38
2023-05-21T11:38:04.076Z,174.38
2023-05-21T11:39:04.062Z,196.88
2023-05-21T11:40:04.053Z,208.12
2023-05-21T11:41:04.062Z,202.50
2023-05-21T11:42:04.777Z,191.25
2023-05-21T11:43:04.019Z,208.12
2023-05-21T11:44:04.014Z,208.12
2023-05-21T11:45:04.028Z,106.88
2023-05-21T11:46:04.037Z,140.62
2023-05-21T11:47:04.006Z,140.62
2023-05-21T11:48:04.015Z,101.25
2023-05-21T11:49:03.965Z,101.25
2023-05-21T11:50:03.974Z,140.62
2023-05-21T11:51:03.946Z,202.50
2023-05-21T11:52:03.926Z,174.38
2023-05-21T11:53:03.982Z,191.25
2023-05-21T11:54:03.909Z,129.38
2023-05-21T11:55:03.896Z,168.75
2023-05-21T11:56:03.904Z,112.50
2023-05-21T11:57:03.870Z,73.12
2023-05-21T11:58:03.868Z,78.75
2023-05-21T11:59:03.888Z,73.12
2023-05-21T12:00:03.872Z,112.50
2023-05-21T12:01:03.836Z,174.38
2023-05-21T12:02:03.847Z,67.50
2023-05-21T12:03:03.925Z,67.50
2023-05-21T12:04:03.915Z,67.50
2023-05-21T12:05:03.834Z,151.88
2023-05-21T12:06:03.835Z,191.25
2023-05-21T12:07:03.776Z,168.75
2023-05-21T12:08:03.756Z,191.25
2023-05-21T12:09:03.744Z,191.25
2023-05-21T12:10:03.744Z,191.25
2023-05-21T12:11:03.758Z,191.25
2023-05-21T12:12:03.714Z,191.25
2023-05-21T12:13:03.704Z,61.88
2023-05-21T12:14:03.738Z,180.00
2023-05-21T12:15:03.693Z,180.00
2023-05-21T12:16:06.566Z,174.38
2023-05-21T12:17:03.682Z,174.38
2023-05-21T12:18:03.701Z,174.38
2023-05-21T12:19:03.677Z,174.38
2023-05-21T12:20:03.632Z,163.12
2023-05-21T12:21:03.626Z,168.75
2023-05-21T12:22:03.622Z,168.75
2023-05-21T12:23:03.627Z,163.12
2023-05-21T12:24:03.610Z,157.50
2023-05-21T12:25:03.583Z,151.88
2023-05-21T12:26:03.576Z,112.50
2023-05-21T12:27:03.561Z,118.12
2023-05-21T12:28:03.569Z,61.88
2023-05-21T12:29:03.585Z,146.25
2023-05-21T12:30:03.529Z,168.75
2023-05-21T12:31:03.516Z,174.38
2023-05-21T12:32:03.658Z,174.38
2023-05-21T12:33:03.524Z,174.38
2023-05-21T12:34:03.529Z,56.25
2023-05-21T12:35:03.541Z,56.25
2023-05-21T12:36:03.473Z,50.62
2023-05-21T12:37:03.460Z,45.00
2023-05-21T12:38:03.471Z,45.00
2023-05-21T12:39:03.449Z,39.38
2023-05-21T12:40:03.436Z,39.38
2023-05-21T12:41:03.441Z,39.38
2023-05-21T12:42:03.417Z,39.38
2023-05-21T12:43:03.390Z,39.38
2023-05-21T12:44:03.402Z,39.38
2023-05-21T12:45:03.382Z,39.38
2023-05-21T12:46:03.413Z,39.38
2023-05-21T12:47:03.396Z,39.38
2023-05-21T12:48:03.467Z,45.00